sensor_id;sensor_type;location;lat;lon;timestamp;P1;durP1;ratioP1;P2;durP2;ratioP2
34064;SDS011;20339;49.754;20.158;2023-12-07T00:00:29;169.90;;;98.30;;
34064;SDS011;20339;49.754;20.158;2023-12-07T00:03:18;163.20;;;94.50;;
34064;SDS011;20339;49.754;20.158;2023-12-07T00:05:48;173.20;;;95.10;;
34064;SDS011;20339;49.754;20.158;2023-12-07T00:08:16;171.20;;;95.00;;
34064;SDS011;20339;49.754;20.158;2023-12-07T00:10:47;158.60;;;93.60;;
34064;SDS011;20339;49.754;20.158;2023-12-07T00:13:17;171.70;;;94.40;;
34064;SDS011;20339;49.754;20.158;2023-12-07T00:15:48;156.50;;;89.10;;
34064;SDS011;20339;49.754;20.158;2023-12-07T00:18:19;162.10;;;88.90;;
34064;SDS011;20339;49.754;20.158;2023-12-07T00:20:47;171.60;;;94.50;;
34064;SDS011;20339;49.754;20.158;2023-12-07T00:23:15;157.00;;;91.60;;
34064;SDS011;20339;49.754;20.158;2023-12-07T00:25:43;163.40;;;92.70;;
34064;SDS011;20339;49.754;20.158;2023-12-07T00:28:12;163.90;;;95.60;;
34064;SDS011;20339;49.754;20.158;2023-12-07T00:30:41;169.10;;;97.50;;
34064;SDS011;20339;49.754;20.158;2023-12-07T00:33:09;182.40;;;96.40;;
34064;SDS011;20339;49.754;20.158;2023-12-07T00:35:38;174.20;;;93.40;;
34064;SDS011;20339;49.754;20.158;2023-12-07T00:38:07;172.40;;;97.30;;
34064;SDS011;20339;49.754;20.158;2023-12-07T00:40:35;169.90;;;95.10;;
34064;SDS011;20339;49.754;20.158;2023-12-07T00:43:06;174.20;;;93.00;;
34064;SDS011;20339;49.754;20.158;2023-12-07T00:45:35;172.30;;;96.10;;
34064;SDS011;20339;49.754;20.158;2023-12-07T00:48:06;175.60;;;98.70;;
34064;SDS011;20339;49.754;20.158;2023-12-07T00:50:38;174.00;;;99.70;;
34064;SDS011;20339;49.754;20.158;2023-12-07T00:53:09;176.10;;;98.00;;
34064;SDS011;20339;49.754;20.158;2023-12-07T00:55:37;169.00;;;98.80;;
34064;SDS011;20339;49.754;20.158;2023-12-07T01:00:34;168.50;;;92.80;;
34064;SDS011;20339;49.754;20.158;2023-12-07T01:03:04;161.10;;;89.80;;
34064;SDS011;20339;49.754;20.158;2023-12-07T01:05:33;178.40;;;96.60;;
34064;SDS011;20339;49.754;20.158;2023-12-07T01:08:05;171.40;;;94.90;;
34064;SDS011;20339;49.754;20.158;2023-12-07T01:10:33;173.90;;;97.60;;
34064;SDS011;20339;49.754;20.158;2023-12-07T01:13:01;174.00;;;97.80;;
34064;SDS011;20339;49.754;20.158;2023-12-07T01:15:30;172.00;;;95.80;;
34064;SDS011;20339;49.754;20.158;2023-12-07T01:17:58;174.10;;;97.20;;
34064;SDS011;20339;49.754;20.158;2023-12-07T01:20:27;178.80;;;100.00;;
34064;SDS011;20339;49.754;20.158;2023-12-07T01:22:58;170.70;;;96.80;;
34064;SDS011;20339;49.754;20.158;2023-12-07T01:25:26;160.40;;;87.60;;
34064;SDS011;20339;49.754;20.158;2023-12-07T01:27:55;174.70;;;93.60;;
34064;SDS011;20339;49.754;20.158;2023-12-07T01:30:23;174.90;;;97.90;;
34064;SDS011;20339;49.754;20.158;2023-12-07T01:32:52;162.10;;;95.00;;
34064;SDS011;20339;49.754;20.158;2023-12-07T01:35:20;171.30;;;96.10;;
34064;SDS011;20339;49.754;20.158;2023-12-07T01:37:48;169.10;;;92.40;;
34064;SDS011;20339;49.754;20.158;2023-12-07T01:40:16;161.70;;;90.30;;
34064;SDS011;20339;49.754;20.158;2023-12-07T01:42:50;165.90;;;93.00;;
34064;SDS011;20339;49.754;20.158;2023-12-07T01:45:19;166.60;;;94.80;;
34064;SDS011;20339;49.754;20.158;2023-12-07T01:47:48;164.70;;;92.80;;
34064;SDS011;20339;49.754;20.158;2023-12-07T01:50:19;167.60;;;94.90;;
34064;SDS011;20339;49.754;20.158;2023-12-07T01:52:52;155.40;;;87.20;;
34064;SDS011;20339;49.754;20.158;2023-12-07T01:55:24;146.50;;;83.30;;
34064;SDS011;20339;49.754;20.158;2023-12-07T01:57:54;157.40;;;86.60;;
34064;SDS011;20339;49.754;20.158;2023-12-07T02:00:25;160.20;;;91.60;;
34064;SDS011;20339;49.754;20.158;2023-12-07T02:02:54;168.00;;;92.90;;
34064;SDS011;20339;49.754;20.158;2023-12-07T02:05:23;160.10;;;87.50;;
34064;SDS011;20339;49.754;20.158;2023-12-07T02:07:52;167.70;;;91.20;;
34064;SDS011;20339;49.754;20.158;2023-12-07T02:10:21;161.40;;;91.10;;
34064;SDS011;20339;49.754;20.158;2023-12-07T02:12:50;162.80;;;94.40;;
34064;SDS011;20339;49.754;20.158;2023-12-07T02:15:21;168.00;;;94.90;;
34064;SDS011;20339;49.754;20.158;2023-12-07T02:17:51;164.00;;;97.00;;
34064;SDS011;20339;49.754;20.158;2023-12-07T02:20:33;171.90;;;95.20;;
34064;SDS011;20339;49.754;20.158;2023-12-07T02:23:07;164.40;;;94.80;;
34064;SDS011;20339;49.754;20.158;2023-12-07T02:25:40;169.80;;;96.40;;
34064;SDS011;20339;49.754;20.158;2023-12-07T02:28:15;165.20;;;91.60;;
34064;SDS011;20339;49.754;20.158;2023-12-07T02:30:44;164.50;;;97.40;;
34064;SDS011;20339;49.754;20.158;2023-12-07T02:33:13;168.40;;;94.10;;
34064;SDS011;20339;49.754;20.158;2023-12-07T02:35:42;160.40;;;94.90;;
34064;SDS011;20339;49.754;20.158;2023-12-07T02:38:13;154.60;;;89.80;;
34064;SDS011;20339;49.754;20.158;2023-12-07T02:40:42;171.20;;;94.90;;
34064;SDS011;20339;49.754;20.158;2023-12-07T02:43:16;163.50;;;92.70;;
34064;SDS011;20339;49.754;20.158;2023-12-07T02:45:45;170.40;;;95.20;;
34064;SDS011;20339;49.754;20.158;2023-12-07T02:48:15;177.20;;;97.20;;
34064;SDS011;20339;49.754;20.158;2023-12-07T02:50:51;168.70;;;96.10;;
34064;SDS011;20339;49.754;20.158;2023-12-07T02:53:20;168.10;;;97.30;;
34064;SDS011;20339;49.754;20.158;2023-12-07T02:55:48;167.00;;;94.90;;
34064;SDS011;20339;49.754;20.158;2023-12-07T02:58:19;165.00;;;96.10;;
34064;SDS011;20339;49.754;20.158;2023-12-07T03:00:48;162.90;;;91.10;;
34064;SDS011;20339;49.754;20.158;2023-12-07T03:03:19;162.60;;;95.60;;
34064;SDS011;20339;49.754;20.158;2023-12-07T03:05:47;169.70;;;93.70;;
34064;SDS011;20339;49.754;20.158;2023-12-07T03:08:18;168.60;;;99.10;;
34064;SDS011;20339;49.754;20.158;2023-12-07T03:10:46;171.90;;;95.70;;
34064;SDS011;20339;49.754;20.158;2023-12-07T03:13:15;170.30;;;95.90;;
34064;SDS011;20339;49.754;20.158;2023-12-07T03:15:43;164.00;;;93.00;;
34064;SDS011;20339;49.754;20.158;2023-12-07T03:18:12;177.40;;;98.20;;
34064;SDS011;20339;49.754;20.158;2023-12-07T03:20:40;167.60;;;94.90;;
34064;SDS011;20339;49.754;20.158;2023-12-07T03:23:09;169.30;;;96.70;;
34064;SDS011;20339;49.754;20.158;2023-12-07T03:25:37;164.30;;;96.20;;
34064;SDS011;20339;49.754;20.158;2023-12-07T03:28:06;166.30;;;91.90;;
34064;SDS011;20339;49.754;20.158;2023-12-07T03:30:35;163.40;;;97.00;;
34064;SDS011;20339;49.754;20.158;2023-12-07T03:33:03;162.00;;;94.70;;
34064;SDS011;20339;49.754;20.158;2023-12-07T03:35:35;166.60;;;94.60;;
34064;SDS011;20339;49.754;20.158;2023-12-07T03:38:06;166.70;;;93.30;;
34064;SDS011;20339;49.754;20.158;2023-12-07T03:40:35;179.40;;;98.50;;
34064;SDS011;20339;49.754;20.158;2023-12-07T03:43:05;172.30;;;95.10;;
34064;SDS011;20339;49.754;20.158;2023-12-07T03:45:41;169.90;;;95.50;;
34064;SDS011;20339;49.754;20.158;2023-12-07T03:48:10;168.70;;;94.90;;
34064;SDS011;20339;49.754;20.158;2023-12-07T03:50:38;161.60;;;93.80;;
34064;SDS011;20339;49.754;20.158;2023-12-07T03:53:07;174.80;;;96.80;;
34064;SDS011;20339;49.754;20.158;2023-12-07T03:55:36;172.40;;;95.80;;
34064;SDS011;20339;49.754;20.158;2023-12-07T03:58:05;164.90;;;96.10;;
34064;SDS011;20339;49.754;20.158;2023-12-07T04:00:33;174.90;;;98.80;;
34064;SDS011;20339;49.754;20.158;2023-12-07T04:03:04;170.80;;;96.40;;
34064;SDS011;20339;49.754;20.158;2023-12-07T04:05:33;162.50;;;94.70;;
34064;SDS011;20339;49.754;20.158;2023-12-07T04:08:02;165.60;;;93.60;;
34064;SDS011;20339;49.754;20.158;2023-12-07T04:10:31;165.60;;;95.10;;
34064;SDS011;20339;49.754;20.158;2023-12-07T04:13:03;161.60;;;91.80;;
34064;SDS011;20339;49.754;20.158;2023-12-07T04:15:31;167.20;;;95.30;;
34064;SDS011;20339;49.754;20.158;2023-12-07T04:17:59;164.60;;;93.60;;
34064;SDS011;20339;49.754;20.158;2023-12-07T04:20:31;166.60;;;96.90;;
34064;SDS011;20339;49.754;20.158;2023-12-07T04:22:59;126.10;;;72.80;;
34064;SDS011;20339;49.754;20.158;2023-12-07T04:25:30;165.70;;;95.80;;
34064;SDS011;20339;49.754;20.158;2023-12-07T04:28:00;166.90;;;95.90;;
34064;SDS011;20339;49.754;20.158;2023-12-07T04:30:31;159.80;;;93.50;;
34064;SDS011;20339;49.754;20.158;2023-12-07T04:33:03;157.70;;;90.50;;
34064;SDS011;20339;49.754;20.158;2023-12-07T04:35:37;153.10;;;89.50;;
34064;SDS011;20339;49.754;20.158;2023-12-07T04:38:08;167.50;;;93.30;;
34064;SDS011;20339;49.754;20.158;2023-12-07T04:40:36;170.30;;;96.30;;
34064;SDS011;20339;49.754;20.158;2023-12-07T04:43:05;166.40;;;91.80;;
34064;SDS011;20339;49.754;20.158;2023-12-07T04:45:34;170.00;;;97.10;;
34064;SDS011;20339;49.754;20.158;2023-12-07T04:48:03;174.60;;;96.60;;
34064;SDS011;20339;49.754;20.158;2023-12-07T04:50:32;168.90;;;96.50;;
34064;SDS011;20339;49.754;20.158;2023-12-07T04:53:00;166.00;;;95.30;;
34064;SDS011;20339;49.754;20.158;2023-12-07T04:55:29;166.70;;;96.10;;
34064;SDS011;20339;49.754;20.158;2023-12-07T04:57:58;153.10;;;87.80;;
34064;SDS011;20339;49.754;20.158;2023-12-07T05:00:26;162.80;;;94.40;;
34064;SDS011;20339;49.754;20.158;2023-12-07T05:02:57;161.40;;;92.40;;
34064;SDS011;20339;49.754;20.158;2023-12-07T05:05:26;164.40;;;94.70;;
34064;SDS011;20339;49.754;20.158;2023-12-07T05:07:57;165.80;;;91.80;;
34064;SDS011;20339;49.754;20.158;2023-12-07T05:10:25;175.50;;;93.90;;
34064;SDS011;20339;49.754;20.158;2023-12-07T05:12:55;169.60;;;94.80;;
34064;SDS011;20339;49.754;20.158;2023-12-07T05:15:25;170.80;;;96.90;;
34064;SDS011;20339;49.754;20.158;2023-12-07T05:17:54;167.00;;;96.80;;
34064;SDS011;20339;49.754;20.158;2023-12-07T05:20:22;179.50;;;101.40;;
34064;SDS011;20339;49.754;20.158;2023-12-07T05:22:56;177.90;;;97.60;;
34064;SDS011;20339;49.754;20.158;2023-12-07T05:25:28;173.00;;;98.70;;
34064;SDS011;20339;49.754;20.158;2023-12-07T05:27:57;187.90;;;101.10;;
34064;SDS011;20339;49.754;20.158;2023-12-07T05:30:25;178.00;;;102.50;;
34064;SDS011;20339;49.754;20.158;2023-12-07T05:32:54;169.80;;;98.80;;
34064;SDS011;20339;49.754;20.158;2023-12-07T05:35:22;182.70;;;101.10;;
34064;SDS011;20339;49.754;20.158;2023-12-07T05:37:53;190.20;;;102.10;;
34064;SDS011;20339;49.754;20.158;2023-12-07T05:40:22;201.00;;;110.60;;
34064;SDS011;20339;49.754;20.158;2023-12-07T05:42:50;202.90;;;103.30;;
34064;SDS011;20339;49.754;20.158;2023-12-07T05:45:19;213.70;;;111.10;;
34064;SDS011;20339;49.754;20.158;2023-12-07T05:47:57;182.70;;;91.50;;
34064;SDS011;20339;49.754;20.158;2023-12-07T05:50:30;211.50;;;107.20;;
34064;SDS011;20339;49.754;20.158;2023-12-07T05:52:59;207.70;;;104.10;;
34064;SDS011;20339;49.754;20.158;2023-12-07T05:57:56;202.30;;;102.30;;
34064;SDS011;20339;49.754;20.158;2023-12-07T06:00:24;201.00;;;106.10;;
34064;SDS011;20339;49.754;20.158;2023-12-07T06:02:52;184.50;;;102.40;;
34064;SDS011;20339;49.754;20.158;2023-12-07T06:07:49;176.20;;;88.70;;
34064;SDS011;20339;49.754;20.158;2023-12-07T06:10:20;172.50;;;89.50;;
34064;SDS011;20339;49.754;20.158;2023-12-07T06:12:50;179.00;;;95.70;;
34064;SDS011;20339;49.754;20.158;2023-12-07T06:15:18;124.50;;;69.70;;
34064;SDS011;20339;49.754;20.158;2023-12-07T06:17:49;185.60;;;97.10;;
34064;SDS011;20339;49.754;20.158;2023-12-07T06:20:17;182.30;;;95.50;;
34064;SDS011;20339;49.754;20.158;2023-12-07T06:22:46;173.80;;;92.50;;
34064;SDS011;20339;49.754;20.158;2023-12-07T06:25:15;194.30;;;101.10;;
34064;SDS011;20339;49.754;20.158;2023-12-07T06:27:43;192.30;;;100.50;;
34064;SDS011;20339;49.754;20.158;2023-12-07T06:30:12;199.30;;;105.80;;
34064;SDS011;20339;49.754;20.158;2023-12-07T06:32:41;183.00;;;99.90;;
34064;SDS011;20339;49.754;20.158;2023-12-07T06:35:14;163.40;;;90.40;;
34064;SDS011;20339;49.754;20.158;2023-12-07T06:37:45;165.30;;;92.50;;
34064;SDS011;20339;49.754;20.158;2023-12-07T06:40:15;171.80;;;98.10;;
34064;SDS011;20339;49.754;20.158;2023-12-07T06:42:45;180.20;;;99.10;;
34064;SDS011;20339;49.754;20.158;2023-12-07T06:45:15;179.40;;;104.10;;
34064;SDS011;20339;49.754;20.158;2023-12-07T06:47:43;194.30;;;105.80;;
34064;SDS011;20339;49.754;20.158;2023-12-07T06:50:12;188.70;;;104.20;;
34064;SDS011;20339;49.754;20.158;2023-12-07T06:52:41;191.30;;;103.40;;
34064;SDS011;20339;49.754;20.158;2023-12-07T06:55:11;184.10;;;99.80;;
34064;SDS011;20339;49.754;20.158;2023-12-07T06:57:42;180.10;;;102.00;;
34064;SDS011;20339;49.754;20.158;2023-12-07T07:00:11;186.70;;;103.00;;
34064;SDS011;20339;49.754;20.158;2023-12-07T07:02:45;179.60;;;103.70;;
34064;SDS011;20339;49.754;20.158;2023-12-07T07:05:14;174.70;;;101.30;;
34064;SDS011;20339;49.754;20.158;2023-12-07T07:07:42;183.20;;;103.20;;
34064;SDS011;20339;49.754;20.158;2023-12-07T07:10:13;177.40;;;100.60;;
34064;SDS011;20339;49.754;20.158;2023-12-07T07:12:42;173.20;;;100.00;;
34064;SDS011;20339;49.754;20.158;2023-12-07T07:15:10;179.80;;;103.30;;
34064;SDS011;20339;49.754;20.158;2023-12-07T07:17:47;166.00;;;97.40;;
34064;SDS011;20339;49.754;20.158;2023-12-07T07:20:16;166.60;;;97.60;;
34064;SDS011;20339;49.754;20.158;2023-12-07T07:22:45;164.90;;;96.10;;
34064;SDS011;20339;49.754;20.158;2023-12-07T07:25:15;161.10;;;91.80;;
34064;SDS011;20339;49.754;20.158;2023-12-07T07:27:46;167.70;;;92.90;;
34064;SDS011;20339;49.754;20.158;2023-12-07T07:30:15;162.30;;;93.50;;
34064;SDS011;20339;49.754;20.158;2023-12-07T07:35:13;163.30;;;94.70;;
34064;SDS011;20339;49.754;20.158;2023-12-07T07:37:42;185.20;;;104.40;;
34064;SDS011;20339;49.754;20.158;2023-12-07T07:40:11;182.70;;;105.00;;
34064;SDS011;20339;49.754;20.158;2023-12-07T07:42:40;182.30;;;101.80;;
34064;SDS011;20339;49.754;20.158;2023-12-07T07:45:09;179.80;;;106.20;;
34064;SDS011;20339;49.754;20.158;2023-12-07T07:47:38;186.90;;;104.30;;
34064;SDS011;20339;49.754;20.158;2023-12-07T07:50:08;176.70;;;101.70;;
34064;SDS011;20339;49.754;20.158;2023-12-07T07:52:40;183.40;;;105.00;;
34064;SDS011;20339;49.754;20.158;2023-12-07T07:55:09;177.30;;;103.70;;
34064;SDS011;20339;49.754;20.158;2023-12-07T07:57:40;170.00;;;101.50;;
34064;SDS011;20339;49.754;20.158;2023-12-07T08:00:12;176.30;;;102.10;;
34064;SDS011;20339;49.754;20.158;2023-12-07T08:02:46;165.60;;;98.00;;
34064;SDS011;20339;49.754;20.158;2023-12-07T08:05:16;165.80;;;95.00;;
34064;SDS011;20339;49.754;20.158;2023-12-07T08:07:45;165.00;;;92.90;;
34064;SDS011;20339;49.754;20.158;2023-12-07T08:10:17;146.60;;;86.00;;
34064;SDS011;20339;49.754;20.158;2023-12-07T08:12:45;147.20;;;85.00;;
34064;SDS011;20339;49.754;20.158;2023-12-07T08:15:14;146.00;;;84.70;;
34064;SDS011;20339;49.754;20.158;2023-12-07T08:17:44;160.90;;;90.00;;
34064;SDS011;20339;49.754;20.158;2023-12-07T08:20:16;152.20;;;90.40;;
34064;SDS011;20339;49.754;20.158;2023-12-07T08:22:46;161.20;;;93.20;;
34064;SDS011;20339;49.754;20.158;2023-12-07T08:25:17;151.10;;;88.60;;
34064;SDS011;20339;49.754;20.158;2023-12-07T08:27:50;150.30;;;88.10;;
34064;SDS011;20339;49.754;20.158;2023-12-07T08:30:21;156.90;;;88.40;;
34064;SDS011;20339;49.754;20.158;2023-12-07T08:32:50;152.60;;;87.70;;
34064;SDS011;20339;49.754;20.158;2023-12-07T08:35:21;153.50;;;87.90;;
34064;SDS011;20339;49.754;20.158;2023-12-07T08:37:52;152.60;;;89.60;;
34064;SDS011;20339;49.754;20.158;2023-12-07T08:40:20;109.90;;;63.50;;
34064;SDS011;20339;49.754;20.158;2023-12-07T08:42:50;152.80;;;89.20;;
34064;SDS011;20339;49.754;20.158;2023-12-07T08:45:25;155.80;;;90.80;;
34064;SDS011;20339;49.754;20.158;2023-12-07T08:47:53;155.60;;;89.10;;
34064;SDS011;20339;49.754;20.158;2023-12-07T08:50:22;160.80;;;90.30;;
34064;SDS011;20339;49.754;20.158;2023-12-07T08:52:51;155.50;;;90.00;;
34064;SDS011;20339;49.754;20.158;2023-12-07T08:57:47;150.30;;;90.30;;
34064;SDS011;20339;49.754;20.158;2023-12-07T09:00:19;163.60;;;93.30;;
34064;SDS011;20339;49.754;20.158;2023-12-07T09:02:53;165.00;;;96.40;;
34064;SDS011;20339;49.754;20.158;2023-12-07T09:05:25;159.80;;;94.70;;
34064;SDS011;20339;49.754;20.158;2023-12-07T09:07:54;161.10;;;98.00;;
34064;SDS011;20339;49.754;20.158;2023-12-07T09:10:25;165.60;;;99.90;;
34064;SDS011;20339;49.754;20.158;2023-12-07T09:15:23;154.50;;;90.30;;
34064;SDS011;20339;49.754;20.158;2023-12-07T09:17:54;162.50;;;93.90;;
34064;SDS011;20339;49.754;20.158;2023-12-07T09:20:22;167.80;;;97.80;;
34064;SDS011;20339;49.754;20.158;2023-12-07T09:22:51;162.00;;;95.40;;
34064;SDS011;20339;49.754;20.158;2023-12-07T09:25:21;160.90;;;95.70;;
34064;SDS011;20339;49.754;20.158;2023-12-07T09:27:52;161.40;;;95.50;;
34064;SDS011;20339;49.754;20.158;2023-12-07T09:30:20;159.90;;;94.50;;
34064;SDS011;20339;49.754;20.158;2023-12-07T09:32:53;146.60;;;88.10;;
34064;SDS011;20339;49.754;20.158;2023-12-07T09:35:22;111.70;;;67.30;;
34064;SDS011;20339;49.754;20.158;2023-12-07T09:37:50;152.70;;;91.20;;
34064;SDS011;20339;49.754;20.158;2023-12-07T09:40:20;140.30;;;81.20;;
34064;SDS011;20339;49.754;20.158;2023-12-07T09:42:53;112.70;;;67.30;;
34064;SDS011;20339;49.754;20.158;2023-12-07T09:45:22;114.10;;;66.90;;
34064;SDS011;20339;49.754;20.158;2023-12-07T09:47:51;117.80;;;67.00;;
34064;SDS011;20339;49.754;20.158;2023-12-07T09:50:25;115.00;;;68.30;;
34064;SDS011;20339;49.754;20.158;2023-12-07T09:52:56;121.00;;;73.40;;
34064;SDS011;20339;49.754;20.158;2023-12-07T09:55:25;119.50;;;72.90;;
34064;SDS011;20339;49.754;20.158;2023-12-07T09:57:53;123.70;;;74.50;;
34064;SDS011;20339;49.754;20.158;2023-12-07T10:00:24;114.90;;;67.40;;
34064;SDS011;20339;49.754;20.158;2023-12-07T10:02:52;99.30;;;60.80;;
34064;SDS011;20339;49.754;20.158;2023-12-07T10:05:20;100.80;;;60.70;;
34064;SDS011;20339;49.754;20.158;2023-12-07T10:07:50;100.10;;;59.20;;
34064;SDS011;20339;49.754;20.158;2023-12-07T10:10:21;100.10;;;59.70;;
34064;SDS011;20339;49.754;20.158;2023-12-07T10:12:51;98.20;;;60.10;;
34064;SDS011;20339;49.754;20.158;2023-12-07T10:15:21;92.20;;;55.20;;
34064;SDS011;20339;49.754;20.158;2023-12-07T10:17:54;80.10;;;48.80;;
34064;SDS011;20339;49.754;20.158;2023-12-07T10:20:27;82.10;;;45.60;;
34064;SDS011;20339;49.754;20.158;2023-12-07T10:23:04;68.00;;;39.20;;
34064;SDS011;20339;49.754;20.158;2023-12-07T10:25:35;72.70;;;40.70;;
34064;SDS011;20339;49.754;20.158;2023-12-07T10:28:05;65.50;;;38.60;;
34064;SDS011;20339;49.754;20.158;2023-12-07T10:33:03;64.50;;;34.80;;
34064;SDS011;20339;49.754;20.158;2023-12-07T10:35:34;53.80;;;28.70;;
34064;SDS011;20339;49.754;20.158;2023-12-07T10:38:06;50.70;;;27.40;;
34064;SDS011;20339;49.754;20.158;2023-12-07T10:40:35;64.30;;;32.60;;
34064;SDS011;20339;49.754;20.158;2023-12-07T10:43:04;64.20;;;37.10;;
34064;SDS011;20339;49.754;20.158;2023-12-07T10:45:34;58.00;;;29.50;;
34064;SDS011;20339;49.754;20.158;2023-12-07T10:48:05;64.30;;;35.50;;
34064;SDS011;20339;49.754;20.158;2023-12-07T10:50:36;69.60;;;39.50;;
34064;SDS011;20339;49.754;20.158;2023-12-07T10:53:17;66.90;;;36.60;;
34064;SDS011;20339;49.754;20.158;2023-12-07T10:55:52;78.50;;;43.80;;
34064;SDS011;20339;49.754;20.158;2023-12-07T10:58:24;65.30;;;39.10;;
34064;SDS011;20339;49.754;20.158;2023-12-07T11:00:53;65.90;;;37.30;;
34064;SDS011;20339;49.754;20.158;2023-12-07T11:03:26;76.60;;;45.50;;
34064;SDS011;20339;49.754;20.158;2023-12-07T11:05:56;63.50;;;39.10;;
34064;SDS011;20339;49.754;20.158;2023-12-07T11:08:27;68.20;;;39.30;;
34064;SDS011;20339;49.754;20.158;2023-12-07T11:11:07;69.30;;;40.30;;
34064;SDS011;20339;49.754;20.158;2023-12-07T11:13:44;52.00;;;29.70;;
34064;SDS011;20339;49.754;20.158;2023-12-07T11:16:18;69.50;;;38.50;;
34064;SDS011;20339;49.754;20.158;2023-12-07T11:18:57;69.60;;;38.70;;
34064;SDS011;20339;49.754;20.158;2023-12-07T11:21:27;62.20;;;33.70;;
34064;SDS011;20339;49.754;20.158;2023-12-07T11:24:01;59.70;;;33.80;;
34064;SDS011;20339;49.754;20.158;2023-12-07T11:28:57;62.00;;;35.30;;
34064;SDS011;20339;49.754;20.158;2023-12-07T11:31:27;64.60;;;36.50;;
34064;SDS011;20339;49.754;20.158;2023-12-07T11:34:02;65.00;;;39.50;;
34064;SDS011;20339;49.754;20.158;2023-12-07T11:36:37;63.40;;;37.80;;
34064;SDS011;20339;49.754;20.158;2023-12-07T11:39:18;71.80;;;41.70;;
34064;SDS011;20339;49.754;20.158;2023-12-07T11:41:51;61.40;;;34.10;;
34064;SDS011;20339;49.754;20.158;2023-12-07T11:44:25;62.10;;;34.40;;
34064;SDS011;20339;49.754;20.158;2023-12-07T11:49:32;55.90;;;34.00;;
34064;SDS011;20339;49.754;20.158;2023-12-07T11:52:11;65.00;;;37.90;;
34064;SDS011;20339;49.754;20.158;2023-12-07T11:54:41;64.60;;;34.70;;
34064;SDS011;20339;49.754;20.158;2023-12-07T11:57:12;52.80;;;31.10;;
34064;SDS011;20339;49.754;20.158;2023-12-07T11:59:41;53.20;;;31.60;;
34064;SDS011;20339;49.754;20.158;2023-12-07T12:02:11;48.50;;;28.40;;
34064;SDS011;20339;49.754;20.158;2023-12-07T12:04:41;57.90;;;30.50;;
34064;SDS011;20339;49.754;20.158;2023-12-07T12:07:10;57.90;;;33.10;;
34064;SDS011;20339;49.754;20.158;2023-12-07T12:09:39;56.30;;;30.80;;
34064;SDS011;20339;49.754;20.158;2023-12-07T12:12:09;54.70;;;30.50;;
34064;SDS011;20339;49.754;20.158;2023-12-07T12:14:40;54.60;;;29.90;;
34064;SDS011;20339;49.754;20.158;2023-12-07T12:17:09;55.10;;;31.20;;
34064;SDS011;20339;49.754;20.158;2023-12-07T12:19:42;61.60;;;34.50;;
34064;SDS011;20339;49.754;20.158;2023-12-07T12:22:11;68.00;;;36.60;;
34064;SDS011;20339;49.754;20.158;2023-12-07T12:24:42;68.10;;;39.30;;
34064;SDS011;20339;49.754;20.158;2023-12-07T12:27:11;58.80;;;33.50;;
34064;SDS011;20339;49.754;20.158;2023-12-07T12:29:40;72.00;;;38.70;;
34064;SDS011;20339;49.754;20.158;2023-12-07T12:32:17;55.50;;;30.70;;
34064;SDS011;20339;49.754;20.158;2023-12-07T12:34:45;61.10;;;32.80;;
34064;SDS011;20339;49.754;20.158;2023-12-07T12:37:17;60.60;;;33.60;;
34064;SDS011;20339;49.754;20.158;2023-12-07T12:39:46;59.70;;;35.00;;
34064;SDS011;20339;49.754;20.158;2023-12-07T12:42:14;54.10;;;27.00;;
34064;SDS011;20339;49.754;20.158;2023-12-07T12:44:43;58.10;;;34.00;;
34064;SDS011;20339;49.754;20.158;2023-12-07T12:49:39;53.80;;;28.50;;
34064;SDS011;20339;49.754;20.158;2023-12-07T12:52:10;65.00;;;36.30;;
34064;SDS011;20339;49.754;20.158;2023-12-07T12:54:43;63.30;;;34.70;;
34064;SDS011;20339;49.754;20.158;2023-12-07T12:57:11;64.50;;;36.20;;
34064;SDS011;20339;49.754;20.158;2023-12-07T12:59:41;65.90;;;36.20;;
34064;SDS011;20339;49.754;20.158;2023-12-07T13:02:09;58.00;;;33.70;;
34064;SDS011;20339;49.754;20.158;2023-12-07T13:04:38;59.00;;;32.80;;
34064;SDS011;20339;49.754;20.158;2023-12-07T13:07:07;58.00;;;32.40;;
34064;SDS011;20339;49.754;20.158;2023-12-07T13:09:36;65.20;;;34.40;;
34064;SDS011;20339;49.754;20.158;2023-12-07T13:12:05;71.50;;;37.20;;
34064;SDS011;20339;49.754;20.158;2023-12-07T13:14:37;67.30;;;37.60;;
34064;SDS011;20339;49.754;20.158;2023-12-07T13:17:13;59.80;;;34.50;;
34064;SDS011;20339;49.754;20.158;2023-12-07T13:19:45;66.90;;;37.10;;
34064;SDS011;20339;49.754;20.158;2023-12-07T13:22:15;62.20;;;34.10;;
34064;SDS011;20339;49.754;20.158;2023-12-07T13:24:47;67.10;;;38.10;;
34064;SDS011;20339;49.754;20.158;2023-12-07T13:27:16;61.90;;;32.00;;
34064;SDS011;20339;49.754;20.158;2023-12-07T13:29:45;67.70;;;39.00;;
34064;SDS011;20339;49.754;20.158;2023-12-07T13:32:14;60.30;;;37.20;;
34064;SDS011;20339;49.754;20.158;2023-12-07T13:34:43;67.20;;;38.70;;
34064;SDS011;20339;49.754;20.158;2023-12-07T13:37:13;60.00;;;34.70;;
34064;SDS011;20339;49.754;20.158;2023-12-07T13:39:46;69.80;;;38.40;;
34064;SDS011;20339;49.754;20.158;2023-12-07T13:42:20;61.30;;;34.60;;
34064;SDS011;20339;49.754;20.158;2023-12-07T13:44:54;63.20;;;37.60;;
34064;SDS011;20339;49.754;20.158;2023-12-07T13:47:28;66.50;;;38.80;;
34064;SDS011;20339;49.754;20.158;2023-12-07T13:50:02;55.10;;;32.70;;
34064;SDS011;20339;49.754;20.158;2023-12-07T13:52:32;57.30;;;34.40;;
34064;SDS011;20339;49.754;20.158;2023-12-07T13:55:02;59.80;;;35.30;;
34064;SDS011;20339;49.754;20.158;2023-12-07T13:57:32;59.20;;;33.60;;
34064;SDS011;20339;49.754;20.158;2023-12-07T14:00:08;62.20;;;36.00;;
34064;SDS011;20339;49.754;20.158;2023-12-07T14:02:41;61.50;;;33.00;;
34064;SDS011;20339;49.754;20.158;2023-12-07T14:05:12;63.80;;;35.90;;
34064;SDS011;20339;49.754;20.158;2023-12-07T14:07:43;66.90;;;39.20;;
34064;SDS011;20339;49.754;20.158;2023-12-07T14:10:13;71.20;;;40.80;;
34064;SDS011;20339;49.754;20.158;2023-12-07T14:12:43;62.90;;;35.70;;
34064;SDS011;20339;49.754;20.158;2023-12-07T14:15:11;61.10;;;36.30;;
34064;SDS011;20339;49.754;20.158;2023-12-07T14:17:41;63.20;;;36.20;;
34064;SDS011;20339;49.754;20.158;2023-12-07T14:20:12;60.20;;;36.10;;
34064;SDS011;20339;49.754;20.158;2023-12-07T14:22:41;58.20;;;34.80;;
34064;SDS011;20339;49.754;20.158;2023-12-07T14:25:13;67.70;;;38.70;;
34064;SDS011;20339;49.754;20.158;2023-12-07T14:27:43;63.00;;;36.80;;
34064;SDS011;20339;49.754;20.158;2023-12-07T14:30:13;66.50;;;39.20;;
34064;SDS011;20339;49.754;20.158;2023-12-07T14:32:43;62.70;;;37.10;;
34064;SDS011;20339;49.754;20.158;2023-12-07T14:35:18;60.90;;;36.80;;
34064;SDS011;20339;49.754;20.158;2023-12-07T14:40:16;60.10;;;34.60;;
34064;SDS011;20339;49.754;20.158;2023-12-07T14:42:47;64.90;;;36.00;;